sensor_id;sensor_type;location;lat;lon;timestamp;temperature;humidity
9107;DHT22;4589;48.690;8.952;2023-01-19T00:01:22;-3.10;99.90
9107;DHT22;4589;48.690;8.952;2023-01-19T00:03:48;-3.10;99.90
9107;DHT22;4589;48.690;8.952;2023-01-19T00:11:09;-3.30;99.90
9107;DHT22;4589;48.690;8.952;2023-01-19T00:13:35;-3.30;99.90
9107;DHT22;4589;48.690;8.952;2023-01-19T00:16:01;-3.20;99.90
9107;DHT22;4589;48.690;8.952;2023-01-19T00:25:45;-3.20;99.90
9107;DHT22;4589;48.690;8.952;2023-01-19T00:28:14;-3.40;99.90
9107;DHT22;4589;48.690;8.952;2023-01-19T00:30:40;-3.30;99.90
9107;DHT22;4589;48.690;8.952;2023-01-19T00:33:07;-3.60;99.90
9107;DHT22;4589;48.690;8.952;2023-01-19T00:35:33;-3.50;99.90
9107;DHT22;4589;48.690;8.952;2023-01-19T00:45:22;-3.60;99.90
9107;DHT22;4589;48.690;8.952;2023-01-19T00:47:49;-3.70;99.90
9107;DHT22;4589;48.690;8.952;2023-01-19T00:52:45;-3.70;99.90
9107;DHT22;4589;48.690;8.952;2023-01-19T00:55:12;-3.90;99.90
9107;DHT22;4589;48.690;8.952;2023-01-19T01:00:09;-4.10;99.90
9107;DHT22;4589;48.690;8.952;2023-01-19T01:02:36;-4.20;99.90
9107;DHT22;4589;48.690;8.952;2023-01-19T01:05:03;-4.10;99.90
9107;DHT22;4589;48.690;8.952;2023-01-19T01:07:31;-4.20;99.90
9107;DHT22;4589;48.690;8.952;2023-01-19T01:10:09;-4.30;99.90
9107;DHT22;4589;48.690;8.952;2023-01-19T01:12:35;-4.30;99.90
9107;DHT22;4589;48.690;8.952;2023-01-19T01:17:27;-4.30;99.90
9107;DHT22;4589;48.690;8.952;2023-01-19T01:19:52;-4.20;99.90
9107;DHT22;4589;48.690;8.952;2023-01-19T01:34:29;-5.00;99.90
9107;DHT22;4589;48.690;8.952;2023-01-19T01:36:55;-5.00;99.90
9107;DHT22;4589;48.690;8.952;2023-01-19T01:49:56;-5.20;99.90
9107;DHT22;4589;48.690;8.952;2023-01-19T01:52:22;-5.20;99.90
9107;DHT22;4589;48.690;8.952;2023-01-19T01:54:50;-5.30;99.90
9107;DHT22;4589;48.690;8.952;2023-01-19T01:57:17;-5.30;99.90
9107;DHT22;4589;48.690;8.952;2023-01-19T01:59:45;-5.40;99.90
9107;DHT22;4589;48.690;8.952;2023-01-19T02:02:21;-5.40;99.90
9107;DHT22;4589;48.690;8.952;2023-01-19T02:05:09;-5.40;99.90
9107;DHT22;4589;48.690;8.952;2023-01-19T02:10:39;-5.40;99.90
9107;DHT22;4589;48.690;8.952;2023-01-19T02:13:24;-5.40;99.90
9107;DHT22;4589;48.690;8.952;2023-01-19T02:15:53;-5.40;99.90
9107;DHT22;4589;48.690;8.952;2023-01-19T02:18:24;-5.30;99.90
9107;DHT22;4589;48.690;8.952;2023-01-19T02:21:24;-5.30;99.90
9107;DHT22;4589;48.690;8.952;2023-01-19T02:23:53;-5.30;99.90
9107;DHT22;4589;48.690;8.952;2023-01-19T02:26:28;-5.40;99.90
9107;DHT22;4589;48.690;8.952;2023-01-19T02:28:58;-5.30;99.90
9107;DHT22;4589;48.690;8.952;2023-01-19T02:31:25;-5.30;99.90
9107;DHT22;4589;48.690;8.952;2023-01-19T02:33:53;-5.30;99.90
9107;DHT22;4589;48.690;8.952;2023-01-19T02:36:23;-5.40;99.90
9107;DHT22;4589;48.690;8.952;2023-01-19T02:38:52;-5.40;99.90
9107;DHT22;4589;48.690;8.952;2023-01-19T02:41:23;-5.40;99.90
9107;DHT22;4589;48.690;8.952;2023-01-19T02:43:51;-5.40;99.90
9107;DHT22;4589;48.690;8.952;2023-01-19T02:46:17;-5.40;99.90
9107;DHT22;4589;48.690;8.952;2023-01-19T02:48:43;-5.40;99.90
9107;DHT22;4589;48.690;8.952;2023-01-19T02:57:00;-5.40;99.90
9107;DHT22;4589;48.690;8.952;2023-01-19T02:59:43;-5.30;99.90
9107;DHT22;4589;48.690;8.952;2023-01-19T03:18:26;-5.60;99.90
9107;DHT22;4589;48.690;8.952;2023-01-19T03:20:56;-5.70;99.90
9107;DHT22;4589;48.690;8.952;2023-01-19T03:23:25;-5.60;99.90
9107;DHT22;4589;48.690;8.952;2023-01-19T03:25:53;-5.60;99.90
9107;DHT22;4589;48.690;8.952;2023-01-19T03:28:23;-5.60;99.90
9107;DHT22;4589;48.690;8.952;2023-01-19T03:30:57;-5.60;99.90
9107;DHT22;4589;48.690;8.952;2023-01-19T03:33:28;-5.60;99.90
9107;DHT22;4589;48.690;8.952;2023-01-19T03:36:00;-5.70;99.90
9107;DHT22;4589;48.690;8.952;2023-01-19T03:38:34;-5.80;99.90
9107;DHT22;4589;48.690;8.952;2023-01-19T03:41:03;-5.70;99.90
9107;DHT22;4589;48.690;8.952;2023-01-19T03:43:31;-5.80;99.90
9107;DHT22;4589;48.690;8.952;2023-01-19T03:45:58;-5.80;99.90
9107;DHT22;4589;48.690;8.952;2023-01-19T03:48:25;-5.90;99.90
9107;DHT22;4589;48.690;8.952;2023-01-19T03:50:51;-5.90;99.90
9107;DHT22;4589;48.690;8.952;2023-01-19T03:53:19;-6.00;99.90
9107;DHT22;4589;48.690;8.952;2023-01-19T03:55:49;-6.00;99.90
9107;DHT22;4589;48.690;8.952;2023-01-19T03:58:14;-5.90;99.90
9107;DHT22;4589;48.690;8.952;2023-01-19T04:00:40;-5.80;99.90
9107;DHT22;4589;48.690;8.952;2023-01-19T04:03:12;-5.70;99.90
9107;DHT22;4589;48.690;8.952;2023-01-19T04:12:59;-5.20;99.90
9107;DHT22;4589;48.690;8.952;2023-01-19T04:15:25;-5.10;99.90
9107;DHT22;4589;48.690;8.952;2023-01-19T04:17:51;-5.00;99.90
9107;DHT22;4589;48.690;8.952;2023-01-19T04:22:43;-4.80;99.90
9107;DHT22;4589;48.690;8.952;2023-01-19T04:25:09;-4.70;99.90
9107;DHT22;4589;48.690;8.952;2023-01-19T04:27:35;-4.70;99.90
9107;DHT22;4589;48.690;8.952;2023-01-19T04:30:01;-4.70;99.90
9107;DHT22;4589;48.690;8.952;2023-01-19T04:32:28;-4.60;99.90
9107;DHT22;4589;48.690;8.952;2023-01-19T04:34:54;-4.70;99.90
9107;DHT22;4589;48.690;8.952;2023-01-19T04:39:45;-4.60;99.90
9107;DHT22;4589;48.690;8.952;2023-01-19T04:49:29;-4.90;99.90
9107;DHT22;4589;48.690;8.952;2023-01-19T04:51:55;-4.90;99.90
9107;DHT22;4589;48.690;8.952;2023-01-19T05:06:33;-5.40;99.90
9107;DHT22;4589;48.690;8.952;2023-01-19T05:28:29;-5.70;99.90
9107;DHT22;4589;48.690;8.952;2023-01-19T05:35:50;-5.80;99.90
9107;DHT22;4589;48.690;8.952;2023-01-19T05:38:17;-5.90;99.90
9107;DHT22;4589;48.690;8.952;2023-01-19T05:48:03;-6.20;99.90
9107;DHT22;4589;48.690;8.952;2023-01-19T05:50:30;-6.20;99.90
9107;DHT22;4589;48.690;8.952;2023-01-19T05:52:55;-6.20;99.90
9107;DHT22;4589;48.690;8.952;2023-01-19T06:00:14;-6.10;99.90
9107;DHT22;4589;48.690;8.952;2023-01-19T06:02:40;-6.10;99.90
9107;DHT22;4589;48.690;8.952;2023-01-19T06:09:57;-6.20;99.90
9107;DHT22;4589;48.690;8.952;2023-01-19T06:12:23;-6.20;99.90
9107;DHT22;4589;48.690;8.952;2023-01-19T06:17:15;-6.20;99.90
9107;DHT22;4589;48.690;8.952;2023-01-19T06:24:33;-6.10;99.90
9107;DHT22;4589;48.690;8.952;2023-01-19T06:29:26;-5.90;99.90
9107;DHT22;4589;48.690;8.952;2023-01-19T06:31:51;-5.80;99.90
9107;DHT22;4589;48.690;8.952;2023-01-19T06:36:44;-5.80;99.90
9107;DHT22;4589;48.690;8.952;2023-01-19T06:41:36;-5.70;99.90
9107;DHT22;4589;48.690;8.952;2023-01-19T06:44:03;-5.70;99.90
9107;DHT22;4589;48.690;8.952;2023-01-19T06:48:55;-5.70;99.90
9107;DHT22;4589;48.690;8.952;2023-01-19T06:51:21;-5.70;99.90
9107;DHT22;4589;48.690;8.952;2023-01-19T06:53:47;-5.70;99.90
9107;DHT22;4589;48.690;8.952;2023-01-19T06:56:13;-5.80;99.90
9107;DHT22;4589;48.690;8.952;2023-01-19T07:01:07;-5.80;99.90
9107;DHT22;4589;48.690;8.952;2023-01-19T07:03:33;-5.80;99.90
9107;DHT22;4589;48.690;8.952;2023-01-19T07:06:00;-5.80;99.90
9107;DHT22;4589;48.690;8.952;2023-01-19T07:08:27;-5.90;99.90
9107;DHT22;4589;48.690;8.952;2023-01-19T07:11:01;-5.90;99.90
9107;DHT22;4589;48.690;8.952;2023-01-19T07:13:29;-5.90;99.90
9107;DHT22;4589;48.690;8.952;2023-01-19T07:23:14;-5.90;99.90
9107;DHT22;4589;48.690;8.952;2023-01-19T07:28:06;-5.90;99.90
9107;DHT22;4589;48.690;8.952;2023-01-19T07:40:16;-5.80;99.90
9107;DHT22;4589;48.690;8.952;2023-01-19T07:42:48;-5.70;99.90
9107;DHT22;4589;48.690;8.952;2023-01-19T07:45:19;-5.40;99.90
9107;DHT22;4589;48.690;8.952;2023-01-19T07:47:46;-5.00;99.90
9107;DHT22;4589;48.690;8.952;2023-01-19T07:52:46;-4.20;99.90
9107;DHT22;4589;48.690;8.952;2023-01-19T07:55:11;-3.90;99.90
9107;DHT22;4589;48.690;8.952;2023-01-19T08:00:04;-3.10;99.90
9107;DHT22;4589;48.690;8.952;2023-01-19T08:17:12;-2.30;99.90
9107;DHT22;4589;48.690;8.952;2023-01-19T08:26:58;-2.80;99.90
9107;DHT22;4589;48.690;8.952;2023-01-19T08:29:24;-3.00;99.90
9107;DHT22;4589;48.690;8.952;2023-01-19T08:31:50;-3.20;99.90
9107;DHT22;4589;48.690;8.952;2023-01-19T08:39:10;-3.20;99.90
9107;DHT22;4589;48.690;8.952;2023-01-19T08:53:47;-2.20;99.90
9107;DHT22;4589;48.690;8.952;2023-01-19T08:58:39;-2.50;99.90
9107;DHT22;4589;48.690;8.952;2023-01-19T09:01:06;-2.40;99.90
9107;DHT22;4589;48.690;8.952;2023-01-19T09:13:18;-2.50;99.90
9107;DHT22;4589;48.690;8.952;2023-01-19T09:18:18;-1.50;99.90
9107;DHT22;4589;48.690;8.952;2023-01-19T09:20:46;-1.30;99.90
9107;DHT22;4589;48.690;8.952;2023-01-19T09:23:17;-1.40;99.90
9107;DHT22;4589;48.690;8.952;2023-01-19T09:25:45;-1.50;99.90
9107;DHT22;4589;48.690;8.952;2023-01-19T09:28:12;-1.40;99.90
9107;DHT22;4589;48.690;8.952;2023-01-19T09:30:40;-1.20;99.90
9107;DHT22;4589;48.690;8.952;2023-01-19T09:33:07;-1.50;99.90
9107;DHT22;4589;48.690;8.952;2023-01-19T09:35:38;-1.70;99.90
9107;DHT22;4589;48.690;8.952;2023-01-19T09:38:04;-1.80;99.90
9107;DHT22;4589;48.690;8.952;2023-01-19T09:40:32;-1.50;99.90
9107;DHT22;4589;48.690;8.952;2023-01-19T09:45:56;-0.90;99.90
9107;DHT22;4589;48.690;8.952;2023-01-19T09:51:13;-0.90;99.90
9107;DHT22;4589;48.690;8.952;2023-01-19T09:54:02;-1.20;99.90
9107;DHT22;4589;48.690;8.952;2023-01-19T09:56:29;-1.30;99.90
9107;DHT22;4589;48.690;8.952;2023-01-19T09:58:55;-1.30;99.90
9107;DHT22;4589;48.690;8.952;2023-01-19T10:02:12;-1.50;99.90
9107;DHT22;4589;48.690;8.952;2023-01-19T10:07:50;-1.60;99.90
9107;DHT22;4589;48.690;8.952;2023-01-19T10:10:24;-1.50;99.90
9107;DHT22;4589;48.690;8.952;2023-01-19T10:16:03;-1.40;99.90
9107;DHT22;4589;48.690;8.952;2023-01-19T10:18:52;-1.40;99.90
9107;DHT22;4589;48.690;8.952;2023-01-19T10:21:21;-1.50;99.90
9107;DHT22;4589;48.690;8.952;2023-01-19T10:24:15;-1.30;99.90
9107;DHT22;4589;48.690;8.952;2023-01-19T10:26:54;-1.30;99.90
9107;DHT22;4589;48.690;8.952;2023-01-19T10:32:07;-1.30;99.90
9107;DHT22;4589;48.690;8.952;2023-01-19T10:37:11;-1.30;99.90
9107;DHT22;4589;48.690;8.952;2023-01-19T10:39:38;-1.40;99.90
9107;DHT22;4589;48.690;8.952;2023-01-19T10:42:07;-1.30;99.90
9107;DHT22;4589;48.690;8.952;2023-01-19T10:44:35;-1.20;99.90
9107;DHT22;4589;48.690;8.952;2023-01-19T10:47:04;-1.20;99.90
9107;DHT22;4589;48.690;8.952;2023-01-19T10:49:38;-1.20;99.90
9107;DHT22;4589;48.690;8.952;2023-01-19T10:52:06;-0.50;99.90
9107;DHT22;4589;48.690;8.952;2023-01-19T10:54:33;-0.90;99.90
9107;DHT22;4589;48.690;8.952;2023-01-19T10:57:08;-0.80;99.90
9107;DHT22;4589;48.690;8.952;2023-01-19T10:59:38;-0.90;99.90
9107;DHT22;4589;48.690;8.952;2023-01-19T11:02:22;-0.30;99.90
9107;DHT22;4589;48.690;8.952;2023-01-19T11:04:52;0.00;99.90
9107;DHT22;4589;48.690;8.952;2023-01-19T11:12:42;0.40;99.90
9107;DHT22;4589;48.690;8.952;2023-01-19T11:17:41;0.80;99.90
9107;DHT22;4589;48.690;8.952;2023-01-19T11:20:21;0.80;99.90
9107;DHT22;4589;48.690;8.952;2023-01-19T11:22:48;1.10;99.90
9107;DHT22;4589;48.690;8.952;2023-01-19T11:25:30;1.60;99.90
9107;DHT22;4589;48.690;8.952;2023-01-19T11:27:57;1.70;99.90
9107;DHT22;4589;48.690;8.952;2023-01-19T11:30:24;1.40;99.90
9107;DHT22;4589;48.690;8.952;2023-01-19T11:32:51;1.10;99.90
9107;DHT22;4589;48.690;8.952;2023-01-19T11:35:38;0.80;99.90
9107;DHT22;4589;48.690;8.952;2023-01-19T11:38:20;0.60;99.90
9107;DHT22;4589;48.690;8.952;2023-01-19T11:40:55;0.40;99.90
9107;DHT22;4589;48.690;8.952;2023-01-19T11:43:23;0.40;99.90
9107;DHT22;4589;48.690;8.952;2023-01-19T11:45:49;0.30;99.90
9107;DHT22;4589;48.690;8.952;2023-01-19T11:48:41;0.10;99.90
9107;DHT22;4589;48.690;8.952;2023-01-19T11:51:13;0.00;99.90
9107;DHT22;4589;48.690;8.952;2023-01-19T11:53:42;-0.10;99.90
9107;DHT22;4589;48.690;8.952;2023-01-19T11:56:12;-0.10;99.90
9107;DHT22;4589;48.690;8.952;2023-01-19T11:58:41;-0.10;99.90
9107;DHT22;4589;48.690;8.952;2023-01-19T12:01:27;-0.10;99.90
9107;DHT22;4589;48.690;8.952;2023-01-19T12:06:32;-0.30;99.90
9107;DHT22;4589;48.690;8.952;2023-01-19T12:11:31;-0.30;99.90
9107;DHT22;4589;48.690;8.952;2023-01-19T12:13:56;-0.20;99.90
9107;DHT22;4589;48.690;8.952;2023-01-19T12:16:27;-0.10;99.90
9107;DHT22;4589;48.690;8.952;2023-01-19T12:19:02;-0.10;99.90
9107;DHT22;4589;48.690;8.952;2023-01-19T12:21:29;-0.20;99.90
9107;DHT22;4589;48.690;8.952;2023-01-19T12:26:52;-0.10;99.90
9107;DHT22;4589;48.690;8.952;2023-01-19T12:29:20;-0.10;99.90
9107;DHT22;4589;48.690;8.952;2023-01-19T12:34:43;-0.10;99.90
9107;DHT22;4589;48.690;8.952;2023-01-19T12:40:03;-0.10;99.90
9107;DHT22;4589;48.690;8.952;2023-01-19T12:42:30;-0.10;99.90
9107;DHT22;4589;48.690;8.952;2023-01-19T12:45:15;-0.20;99.90
9107;DHT22;4589;48.690;8.952;2023-01-19T12:47:49;-0.20;99.90
9107;DHT22;4589;48.690;8.952;2023-01-19T12:50:17;-0.20;99.90
9107;DHT22;4589;48.690;8.952;2023-01-19T12:52:57;-0.20;99.90
9107;DHT22;4589;48.690;8.952;2023-01-19T12:55:32;-0.20;99.90
9107;DHT22;4589;48.690;8.952;2023-01-19T12:58:21;-0.30;99.90
9107;DHT22;4589;48.690;8.952;2023-01-19T13:00:48;-0.30;99.90
9107;DHT22;4589;48.690;8.952;2023-01-19T13:15:52;-0.30;99.90
9107;DHT22;4589;48.690;8.952;2023-01-19T13:18:27;-0.30;99.90
9107;DHT22;4589;48.690;8.952;2023-01-19T13:20:57;-0.30;99.90
9107;DHT22;4589;48.690;8.952;2023-01-19T13:26:18;0.00;99.90
9107;DHT22;4589;48.690;8.952;2023-01-19T13:28:47;-0.30;99.90
9107;DHT22;4589;48.690;8.952;2023-01-19T13:31:14;-0.30;99.90
9107;DHT22;4589;48.690;8.952;2023-01-19T13:33:52;-0.20;99.90
9107;DHT22;4589;48.690;8.952;2023-01-19T13:38:51;-0.30;99.90
9107;DHT22;4589;48.690;8.952;2023-01-19T13:41:19;-0.30;99.90
9107;DHT22;4589;48.690;8.952;2023-01-19T13:43:46;-0.30;99.90
9107;DHT22;4589;48.690;8.952;2023-01-19T13:46:14;-0.30;99.90
9107;DHT22;4589;48.690;8.952;2023-01-19T13:48:54;-0.30;99.90
9107;DHT22;4589;48.690;8.952;2023-01-19T13:51:20;-0.20;99.90
9107;DHT22;4589;48.690;8.952;2023-01-19T13:53:57;-0.30;99.90
9107;DHT22;4589;48.690;8.952;2023-01-19T13:56:25;-0.30;99.90
9107;DHT22;4589;48.690;8.952;2023-01-19T13:59:01;-0.30;99.90
9107;DHT22;4589;48.690;8.952;2023-01-19T14:06:36;-0.30;99.90
9107;DHT22;4589;48.690;8.952;2023-01-19T14:09:09;-0.30;99.90
9107;DHT22;4589;48.690;8.952;2023-01-19T14:11:37;-0.30;99.90
9107;DHT22;4589;48.690;8.952;2023-01-19T14:14:02;-0.30;99.90
9107;DHT22;4589;48.690;8.952;2023-01-19T14:16:28;-0.30;99.90
9107;DHT22;4589;48.690;8.952;2023-01-19T14:19:01;-0.30;99.90
9107;DHT22;4589;48.690;8.952;2023-01-19T14:21:39;-0.40;99.90
9107;DHT22;4589;48.690;8.952;2023-01-19T14:24:08;-0.40;99.90
9107;DHT22;4589;48.690;8.952;2023-01-19T14:26:40;-0.40;99.90
9107;DHT22;4589;48.690;8.952;2023-01-19T14:29:28;-0.40;99.90
9107;DHT22;4589;48.690;8.952;2023-01-19T14:37:02;-0.40;99.90
9107;DHT22;4589;48.690;8.952;2023-01-19T14:39:30;-0.40;99.90
9107;DHT22;4589;48.690;8.952;2023-01-19T14:41:59;-0.40;99.90
9107;DHT22;4589;48.690;8.952;2023-01-19T14:44:38;-0.30;99.90
9107;DHT22;4589;48.690;8.952;2023-01-19T14:47:05;-0.30;99.90
9107;DHT22;4589;48.690;8.952;2023-01-19T14:49:37;-0.40;99.90
9107;DHT22;4589;48.690;8.952;2023-01-19T14:52:20;-0.40;99.90
9107;DHT22;4589;48.690;8.952;2023-01-19T14:54:47;-0.40;99.90
9107;DHT22;4589;48.690;8.952;2023-01-19T14:57:13;-0.40;99.90
9107;DHT22;4589;48.690;8.952;2023-01-19T14:59:40;-0.40;99.90
9107;DHT22;4589;48.690;8.952;2023-01-19T15:02:06;-0.40;99.90
9107;DHT22;4589;48.690;8.952;2023-01-19T15:11:51;-0.30;99.90
9107;DHT22;4589;48.690;8.952;2023-01-19T15:14:17;-0.30;99.90
9107;DHT22;4589;48.690;8.952;2023-01-19T15:16:44;-0.40;99.90
9107;DHT22;4589;48.690;8.952;2023-01-19T15:19:11;-0.40;99.90
9107;DHT22;4589;48.690;8.952;2023-01-19T15:24:07;-0.30;99.90
9107;DHT22;4589;48.690;8.952;2023-01-19T15:26:34;-0.30;99.90
9107;DHT22;4589;48.690;8.952;2023-01-19T15:29:01;-0.30;99.90
9107;DHT22;4589;48.690;8.952;2023-01-19T15:33:52;-0.30;99.90
9107;DHT22;4589;48.690;8.952;2023-01-19T15:36:20;-0.30;99.90
9107;DHT22;4589;48.690;8.952;2023-01-19T15:38:46;-2.50;99.90
9107;DHT22;4589;48.690;8.952;2023-01-19T15:41:24;-0.20;99.90
9107;DHT22;4589;48.690;8.952;2023-01-19T15:43:50;-0.20;99.90
9107;DHT22;4589;48.690;8.952;2023-01-19T15:46:18;-0.20;99.90
9107;DHT22;4589;48.690;8.952;2023-01-19T15:48:43;-0.20;99.90
9107;DHT22;4589;48.690;8.952;2023-01-19T15:51:15;-0.30;99.90
9107;DHT22;4589;48.690;8.952;2023-01-19T15:53:41;-0.30;99.90
9107;DHT22;4589;48.690;8.952;2023-01-19T15:56:19;-0.20;99.90
9107;DHT22;4589;48.690;8.952;2023-01-19T15:58:46;-0.30;99.90
9107;DHT22;4589;48.690;8.952;2023-01-19T16:01:13;-0.30;99.90
9107;DHT22;4589;48.690;8.952;2023-01-19T16:11:05;-0.30;99.90
9107;DHT22;4589;48.690;8.952;2023-01-19T16:13:31;-0.30;99.90
9107;DHT22;4589;48.690;8.952;2023-01-19T16:16:01;-0.30;99.90
9107;DHT22;4589;48.690;8.952;2023-01-19T16:18:27;-0.30;99.90
9107;DHT22;4589;48.690;8.952;2023-01-19T16:20:53;-0.30;99.90
9107;DHT22;4589;48.690;8.952;2023-01-19T16:23:18;-0.30;99.90
9107;DHT22;4589;48.690;8.952;2023-01-19T16:26:00;-0.40;99.90
9107;DHT22;4589;48.690;8.952;2023-01-19T16:28:29;-0.40;99.90
9107;DHT22;4589;48.690;8.952;2023-01-19T16:30:55;-0.50;99.90
9107;DHT22;4589;48.690;8.952;2023-01-19T16:33:21;-0.50;99.90
9107;DHT22;4589;48.690;8.952;2023-01-19T16:38:12;-0.40;99.90
9107;DHT22;4589;48.690;8.952;2023-01-19T16:43:04;-0.50;99.90
9107;DHT22;4589;48.690;8.952;2023-01-19T16:45:30;-0.60;99.90
9107;DHT22;4589;48.690;8.952;2023-01-19T16:50:21;-0.60;99.90
9107;DHT22;4589;48.690;8.952;2023-01-19T16:55:14;-0.60;99.90
9107;DHT22;4589;48.690;8.952;2023-01-19T17:00:08;-0.60;99.90
9107;DHT22;4589;48.690;8.952;2023-01-19T17:07:27;-0.70;99.90
9107;DHT22;4589;48.690;8.952;2023-01-19T17:17:12;-0.80;99.90
9107;DHT22;4589;48.690;8.952;2023-01-19T17:19:38;-0.70;99.90
9107;DHT22;4589;48.690;8.952;2023-01-19T17:22:04;-0.60;99.90
9107;DHT22;4589;48.690;8.952;2023-01-19T17:24:30;-0.70;99.90
9107;DHT22;4589;48.690;8.952;2023-01-19T17:31:49;-0.80;99.90
9107;DHT22;4589;48.690;8.952;2023-01-19T17:34:15;-0.80;99.90
9107;DHT22;4589;48.690;8.952;2023-01-19T17:36:40;-0.70;99.90
9107;DHT22;4589;48.690;8.952;2023-01-19T17:39:08;-0.80;99.90
9107;DHT22;4589;48.690;8.952;2023-01-19T17:44:03;-0.70;99.90
9107;DHT22;4589;48.690;8.952;2023-01-19T17:46:30;-0.80;99.90
9107;DHT22;4589;48.690;8.952;2023-01-19T17:49:01;-0.80;99.90
9107;DHT22;4589;48.690;8.952;2023-01-19T17:51:28;-0.70;99.90
9107;DHT22;4589;48.690;8.952;2023-01-19T17:53:54;-0.70;99.90
9107;DHT22;4589;48.690;8.952;2023-01-19T17:56:22;-0.70;99.90
9107;DHT22;4589;48.690;8.952;2023-01-19T17:58:50;-0.70;99.90
9107;DHT22;4589;48.690;8.952;2023-01-19T18:01:21;-0.70;99.90
9107;DHT22;4589;48.690;8.952;2023-01-19T18:06:14;-0.70;99.90
9107;DHT22;4589;48.690;8.952;2023-01-19T18:08:42;-0.60;99.90
9107;DHT22;4589;48.690;8.952;2023-01-19T18:11:09;-0.70;99.90
9107;DHT22;4589;48.690;8.952;2023-01-19T18:13:36;-0.60;99.90
9107;DHT22;4589;48.690;8.952;2023-01-19T18:16:04;-0.70;99.90
9107;DHT22;4589;48.690;8.952;2023-01-19T18:21:01;-0.70;99.90
9107;DHT22;4589;48.690;8.952;2023-01-19T18:23:27;-0.70;99.90
9107;DHT22;4589;48.690;8.952;2023-01-19T18:26:04;-0.60;99.90
9107;DHT22;4589;48.690;8.952;2023-01-19T18:30:57;-0.60;99.90
9107;DHT22;4589;48.690;8.952;2023-01-19T18:33:23;-0.60;99.90
9107;DHT22;4589;48.690;8.952;2023-01-19T18:35:49;-0.60;99.90
9107;DHT22;4589;48.690;8.952;2023-01-19T18:43:08;-0.60;99.90
9107;DHT22;4589;48.690;8.952;2023-01-19T18:45:34;-0.60;99.90
9107;DHT22;4589;48.690;8.952;2023-01-19T18:48:01;-0.70;99.90
9107;DHT22;4589;48.690;8.952;2023-01-19T18:50:27;-0.70;99.90
9107;DHT22;4589;48.690;8.952;2023-01-19T18:55:19;-0.60;99.90
9107;DHT22;4589;48.690;8.952;2023-01-19T18:57:44;-0.70;99.90
9107;DHT22;4589;48.690;8.952;2023-01-19T19:00:11;-0.70;99.90
9107;DHT22;4589;48.690;8.952;2023-01-19T19:12:20;-0.80;99.90
9107;DHT22;4589;48.690;8.952;2023-01-19T19:14:46;-0.70;99.90
9107;DHT22;4589;48.690;8.952;2023-01-19T19:17:12;-0.70;99.90
9107;DHT22;4589;48.690;8.952;2023-01-19T19:29:21;-0.70;99.90
9107;DHT22;4589;48.690;8.952;2023-01-19T19:31:46;-0.70;99.90
9107;DHT22;4589;48.690;8.952;2023-01-19T19:34:12;-0.80;99.90
9107;DHT22;4589;48.690;8.952;2023-01-19T19:36:38;-1.00;99.90
9107;DHT22;4589;48.690;8.952;2023-01-19T19:39:04;-1.00;99.90
9107;DHT22;4589;48.690;8.952;2023-01-19T19:41:30;-1.10;99.90
9107;DHT22;4589;48.690;8.952;2023-01-19T19:44:01;-1.10;99.90
9107;DHT22;4589;48.690;8.952;2023-01-19T19:46:27;-1.10;99.90
9107;DHT22;4589;48.690;8.952;2023-01-19T19:48:53;-1.10;99.90
9107;DHT22;4589;48.690;8.952;2023-01-19T19:51:21;-1.10;99.90
9107;DHT22;4589;48.690;8.952;2023-01-19T19:53:48;-1.00;99.90
9107;DHT22;4589;48.690;8.952;2023-01-19T19:56:14;-1.00;99.90
9107;DHT22;4589;48.690;8.952;2023-01-19T19:58:41;-0.90;99.90
9107;DHT22;4589;48.690;8.952;2023-01-19T20:01:08;-0.90;99.90
9107;DHT22;4589;48.690;8.952;2023-01-19T20:03:35;-0.90;99.90
9107;DHT22;4589;48.690;8.952;2023-01-19T20:06:15;-0.80;99.90
9107;DHT22;4589;48.690;8.952;2023-01-19T20:08:42;-0.90;99.90
9107;DHT22;4589;48.690;8.952;2023-01-19T20:11:14;-0.80;99.90
9107;DHT22;4589;48.690;8.952;2023-01-19T20:13:41;-0.80;99.90
9107;DHT22;4589;48.690;8.952;2023-01-19T20:16:10;-0.70;99.90
9107;DHT22;4589;48.690;8.952;2023-01-19T20:18:40;-0.70;99.90
9107;DHT22;4589;48.690;8.952;2023-01-19T20:21:21;-0.90;99.90
9107;DHT22;4589;48.690;8.952;2023-01-19T20:23:48;-1.00;99.90
9107;DHT22;4589;48.690;8.952;2023-01-19T20:26:16;-1.10;99.90
9107;DHT22;4589;48.690;8.952;2023-01-19T20:28:43;-1.20;99.90
9107;DHT22;4589;48.690;8.952;2023-01-19T20:31:17;-1.30;99.90
9107;DHT22;4589;48.690;8.952;2023-01-19T20:33:44;-1.30;99.90
9107;DHT22;4589;48.690;8.952;2023-01-19T20:36:10;-1.30;99.90
9107;DHT22;4589;48.690;8.952;2023-01-19T20:38:37;-1.30;99.90
9107;DHT22;4589;48.690;8.952;2023-01-19T20:41:03;-1.20;99.90
9107;DHT22;4589;48.690;8.952;2023-01-19T20:43:29;-1.20;99.90
9107;DHT22;4589;48.690;8.952;2023-01-19T20:45:55;-1.10;99.90
9107;DHT22;4589;48.690;8.952;2023-01-19T20:50:47;-1.10;99.90
9107;DHT22;4589;48.690;8.952;2023-01-19T20:53:12;-1.10;99.90
9107;DHT22;4589;48.690;8.952;2023-01-19T20:58:04;-1.00;99.90
9107;DHT22;4589;48.690;8.952;2023-01-19T21:05:22;-1.10;99.90
9107;DHT22;4589;48.690;8.952;2023-01-19T21:07:49;-1.20;99.90
9107;DHT22;4589;48.690;8.952;2023-01-19T21:10:15;-1.10;99.90
9107;DHT22;4589;48.690;8.952;2023-01-19T21:12:42;-1.00;99.90
9107;DHT22;4589;48.690;8.952;2023-01-19T21:15:08;-1.00;99.90
9107;DHT22;4589;48.690;8.952;2023-01-19T21:20:00;-1.00;99.90
9107;DHT22;4589;48.690;8.952;2023-01-19T21:22:26;-1.00;99.90
9107;DHT22;4589;48.690;8.952;2023-01-19T21:27:17;-1.00;99.90
9107;DHT22;4589;48.690;8.952;2023-01-19T21:29:43;-1.00;99.90
9107;DHT22;4589;48.690;8.952;2023-01-19T21:32:08;-1.00;99.90
9107;DHT22;4589;48.690;8.952;2023-01-19T21:37:00;-1.00;99.90
9107;DHT22;4589;48.690;8.952;2023-01-19T21:46:43;-1.10;99.90
9107;DHT22;4589;48.690;8.952;2023-01-19T21:49:15;-1.00;99.90
9107;DHT22;4589;48.690;8.952;2023-01-19T21:51:42;-1.10;99.90
9107;DHT22;4589;48.690;8.952;2023-01-19T21:54:08;-1.20;99.90
9107;DHT22;4589;48.690;8.952;2023-01-19T21:56:34;-1.20;99.90
9107;DHT22;4589;48.690;8.952;2023-01-19T21:59:02;-1.20;99.90
9107;DHT22;4589;48.690;8.952;2023-01-19T22:01:28;-1.30;99.90
9107;DHT22;4589;48.690;8.952;2023-01-19T22:03:55;-1.30;99.90
9107;DHT22;4589;48.690;8.952;2023-01-19T22:06:23;-1.40;99.90
9107;DHT22;4589;48.690;8.952;2023-01-19T22:11:16;-1.40;99.90
9107;DHT22;4589;48.690;8.952;2023-01-19T22:13:43;-1.50;99.90
9107;DHT22;4589;48.690;8.952;2023-01-19T22:16:11;-1.60;99.90
9107;DHT22;4589;48.690;8.952;2023-01-19T22:18:40;-1.70;99.90
9107;DHT22;4589;48.690;8.952;2023-01-19T22:21:15;-1.70;99.90
9107;DHT22;4589;48.690;8.952;2023-01-19T22:23:41;-1.70;99.90
9107;DHT22;4589;48.690;8.952;2023-01-19T22:26:07;-1.80;99.90
9107;DHT22;4589;48.690;8.952;2023-01-19T22:28:33;-1.90;99.90
9107;DHT22;4589;48.690;8.952;2023-01-19T22:31:07;-2.00;99.90
9107;DHT22;4589;48.690;8.952;2023-01-19T22:36:20;-2.20;99.90
9107;DHT22;4589;48.690;8.952;2023-01-19T22:41:27;-2.40;99.90
9107;DHT22;4589;48.690;8.952;2023-01-19T22:43:55;-2.50;99.90
9107;DHT22;4589;48.690;8.952;2023-01-19T22:46:23;-2.60;99.90
9107;DHT22;4589;48.690;8.952;2023-01-19T22:51:16;-2.70;99.90
9107;DHT22;4589;48.690;8.952;2023-01-19T22:56:13;-2.90;99.90
9107;DHT22;4589;48.690;8.952;2023-01-19T23:01:06;-3.00;99.90
9107;DHT22;4589;48.690;8.952;2023-01-19T23:06:05;-3.00;99.90
9107;DHT22;4589;48.690;8.952;2023-01-19T23:11:03;-3.10;99.90
9107;DHT22;4589;48.690;8.952;2023-01-19T23:13:29;-3.10;99.90
9107;DHT22;4589;48.690;8.952;2023-01-19T23:15:56;-3.10;99.90
9107;DHT22;4589;48.690;8.952;2023-01-19T23:30:32;-3.10;99.90
9107;DHT22;4589;48.690;8.952;2023-01-19T23:45:08;-2.90;99.90
9107;DHT22;4589;48.690;8.952;2023-01-19T23:47:34;-2.90;99.90
9107;DHT22;4589;48.690;8.952;2023-01-19T23:50:03;-2.90;99.90
